Terminal Aerodrome Forecast
Issued by NWS

Home | Current Version | Previous Version | Text Only | Print | Product List | Glossary Off
Versions: 1 2 3 4 5 6 7 8 9 10 11 12 13 14 15 16 17 18 19 20

000
FTUS42 KMHX 181729
TAFISO
TAF
KISO 181729Z 1818/1918 36010KT P6SM SKC
     FM181930 05010KT P6SM SKC
     FM182300 09005KT P6SM SKC
     FM190500 VRB04KT P6SM BKN060
     FM190900 VRB03KT P6SM OVC020
     FM191200 00000KT P6SM OVC015
      AMD LTD TO CLD VIS AND WIND=

USA.gov is the U.S. government's official web portal to all federal, state and local government web resources and services.